createdAt,value
2024-05-09T00:00:35.793Z,13.55
2024-05-09T00:03:07.757Z,13.51
2024-05-09T00:05:34.855Z,13.48
2024-05-09T00:08:01.687Z,13.53
2024-05-09T00:10:35.436Z,13.46
2024-05-09T00:13:04.688Z,13.23
2024-05-09T00:15:31.570Z,13.25
2024-05-09T00:17:58.344Z,13.20
2024-05-09T00:20:33.077Z,13.01
2024-05-09T00:23:06.675Z,12.82
2024-05-09T00:25:33.443Z,12.65
2024-05-09T00:28:00.022Z,12.58
2024-05-09T00:30:33.531Z,12.59
2024-05-09T00:33:03.774Z,12.80
2024-05-09T00:35:31.014Z,12.86
2024-05-09T00:37:57.772Z,13.02
2024-05-09T00:40:35.026Z,13.08
2024-05-09T00:43:06.106Z,13.08
2024-05-09T00:45:36.136Z,13.06
2024-05-09T00:48:09.011Z,13.07
2024-05-09T00:50:38.973Z,12.99
2024-05-09T00:53:11.106Z,12.90
2024-05-09T00:55:38.130Z,12.97
2024-05-09T00:58:05.348Z,13.01
2024-05-09T01:00:38.445Z,13.01
2024-05-09T01:03:08.221Z,13.04
2024-05-09T01:05:35.700Z,13.04
2024-05-09T01:08:02.976Z,12.97
2024-05-09T01:10:34.453Z,12.99
2024-05-09T01:13:03.339Z,12.88
2024-05-09T01:15:29.904Z,12.69
2024-05-09T01:17:57.111Z,12.48
2024-05-09T01:20:36.349Z,12.39
2024-05-09T01:23:08.902Z,12.22
2024-05-09T01:25:35.772Z,12.03
2024-05-09T01:28:02.458Z,12.09
2024-05-09T01:30:34.618Z,12.16
2024-05-09T01:33:04.175Z,12.22
2024-05-09T01:35:31.211Z,12.27
2024-05-09T01:37:57.919Z,12.39
2024-05-09T01:44:25.545Z,12.33
2024-05-09T01:46:52.141Z,12.33
2024-05-09T01:49:18.833Z,12.13
2024-05-09T01:51:45.605Z,12.17
2024-05-09T01:54:12.148Z,12.22
2024-05-09T01:56:38.722Z,12.12
2024-05-09T01:59:06.675Z,11.88
2024-05-09T02:01:55.469Z,11.78
2024-05-09T02:04:20.123Z,11.85
2024-05-09T02:06:46.731Z,11.90
2024-05-09T02:09:13.262Z,11.94
2024-05-09T02:11:44.115Z,11.81
2024-05-09T02:14:11.091Z,11.90
2024-05-09T02:16:37.697Z,11.82
2024-05-09T02:19:04.275Z,11.97
2024-05-09T02:21:34.315Z,12.01
2024-05-09T02:24:00.992Z,12.00
2024-05-09T02:26:27.642Z,11.98
2024-05-09T02:28:54.299Z,11.93
2024-05-09T02:31:20.946Z,11.84
2024-05-09T02:33:47.709Z,11.81
2024-05-09T02:36:14.444Z,11.82
2024-05-09T02:38:41.142Z,11.80
2024-05-09T02:41:08.684Z,11.81
2024-05-09T02:43:35.677Z,11.84
2024-05-09T02:46:02.199Z,11.59
2024-05-09T02:48:28.841Z,11.48
2024-05-09T02:50:55.498Z,11.59
2024-05-09T02:53:22.119Z,11.34
2024-05-09T02:55:48.693Z,11.43
2024-05-09T02:58:15.257Z,11.52
2024-05-09T03:00:42.962Z,11.75
2024-05-09T03:03:12.755Z,11.59
2024-05-09T03:05:41.792Z,11.61
2024-05-09T03:08:09.082Z,11.56
2024-05-09T03:10:38.128Z,11.56
2024-05-09T03:13:09.984Z,11.49
2024-05-09T03:15:36.828Z,11.31
2024-05-09T03:18:04.527Z,11.38
2024-05-09T03:20:34.803Z,11.28
2024-05-09T03:23:03.920Z,11.31
2024-05-09T03:25:30.685Z,11.30
2024-05-09T03:27:57.247Z,11.27
2024-05-09T03:30:35.871Z,11.37
2024-05-09T03:33:20.170Z,11.38
2024-05-09T03:35:48.397Z,11.37
2024-05-09T03:38:15.535Z,11.31
2024-05-09T03:40:50.378Z,11.29
2024-05-09T03:43:17.958Z,11.05
2024-05-09T03:45:45.279Z,11.08
2024-05-09T03:48:12.242Z,11.08
2024-05-09T03:50:39.142Z,10.94
2024-05-09T03:53:06.730Z,10.91
2024-05-09T03:55:33.327Z,10.90
2024-05-09T03:57:59.956Z,10.83
2024-05-09T04:00:35.083Z,10.84
2024-05-09T04:03:07.664Z,10.84
2024-05-09T04:05:37.927Z,10.83
2024-05-09T04:08:05.224Z,10.84
2024-05-09T04:10:34.200Z,10.89
2024-05-09T04:13:02.415Z,10.77
2024-05-09T04:15:29.248Z,10.87
2024-05-09T04:17:56.121Z,10.78
2024-05-09T04:20:33.474Z,10.86
2024-05-09T04:23:12.361Z,10.87
2024-05-09T04:25:44.365Z,10.99
2024-05-09T04:28:11.488Z,10.91
2024-05-09T04:30:40.707Z,10.82
2024-05-09T04:33:11.776Z,10.88
2024-05-09T04:35:41.931Z,10.87
2024-05-09T04:38:08.861Z,11.15
2024-05-09T04:40:37.084Z,11.16
2024-05-09T04:43:05.495Z,11.07
2024-05-09T04:45:32.459Z,10.83
2024-05-09T04:47:59.305Z,10.95
2024-05-09T04:50:35.268Z,10.95
2024-05-09T04:53:05.292Z,10.91
2024-05-09T04:55:32.599Z,11.01
2024-05-09T04:57:59.157Z,11.09
2024-05-09T05:00:32.556Z,11.21
2024-05-09T05:03:08.922Z,11.26
2024-05-09T05:05:41.293Z,11.41
2024-05-09T05:08:15.526Z,11.35
2024-05-09T05:10:43.129Z,11.44
2024-05-09T05:13:20.433Z,11.44
2024-05-09T05:15:49.117Z,11.38
2024-05-09T05:18:16.266Z,11.46
2024-05-09T05:20:43.252Z,11.54
2024-05-09T05:23:15.136Z,11.65
2024-05-09T05:25:42.540Z,11.74
2024-05-09T05:28:09.399Z,11.79
2024-05-09T05:30:37.516Z,11.95
2024-05-09T05:33:05.119Z,12.09
2024-05-09T05:35:31.870Z,12.17
2024-05-09T05:37:58.640Z,12.17
2024-05-09T05:40:32.964Z,12.42
2024-05-09T05:43:04.631Z,12.47
2024-05-09T05:45:31.265Z,12.68
2024-05-09T05:47:57.952Z,12.88
2024-05-09T05:50:32.302Z,12.91
2024-05-09T05:53:03.220Z,12.98
2024-05-09T05:55:29.942Z,13.06
2024-05-09T05:57:56.495Z,13.19
2024-05-09T06:00:29.838Z,13.22
2024-05-09T06:03:04.566Z,13.33
2024-05-09T06:05:31.276Z,13.33
2024-05-09T06:07:57.961Z,13.36
2024-05-09T06:10:30.136Z,13.27
2024-05-09T06:13:04.082Z,13.24
2024-05-09T06:15:30.642Z,13.48
2024-05-09T06:17:57.364Z,13.73
2024-05-09T06:20:31.983Z,13.62
2024-05-09T06:23:03.355Z,13.81
2024-05-09T06:25:30.099Z,13.88
2024-05-09T06:27:56.747Z,13.95
2024-05-09T06:30:30.382Z,13.95
2024-05-09T06:33:05.347Z,14.05
2024-05-09T06:35:32.652Z,14.26
2024-05-09T06:37:59.453Z,14.31
2024-05-09T06:40:34.446Z,14.53
2024-05-09T06:43:04.886Z,14.50
2024-05-09T06:45:31.438Z,14.58
2024-05-09T06:47:58.202Z,14.51
2024-05-09T06:50:28.329Z,14.86
2024-05-09T06:52:58.475Z,14.89
2024-05-09T06:55:25.093Z,14.91
2024-05-09T06:57:51.639Z,15.06
2024-05-09T07:00:26.885Z,14.58
2024-05-09T07:02:59.058Z,14.73
2024-05-09T07:05:26.807Z,15.32
2024-05-09T07:07:53.542Z,14.88
2024-05-09T07:10:28.463Z,15.12
2024-05-09T07:12:59.372Z,14.82
2024-05-09T07:15:25.954Z,15.76
2024-05-09T07:17:52.778Z,15.89
2024-05-09T07:20:27.709Z,15.70
2024-05-09T07:23:00.711Z,16.18
2024-05-09T07:25:27.390Z,16.16
2024-05-09T07:27:53.934Z,16.28
2024-05-09T07:30:27.631Z,15.97
2024-05-09T07:32:59.917Z,16.44
2024-05-09T07:35:26.858Z,16.56
2024-05-09T07:37:53.611Z,16.15
2024-05-09T07:42:49.722Z,16.83
2024-05-09T07:45:39.003Z,16.71
2024-05-09T07:52:23.005Z,17.21
2024-05-09T07:53:38.548Z,17.08
2024-05-09T07:56:07.187Z,17.44
2024-05-09T07:58:33.988Z,17.72
2024-05-09T08:01:02.542Z,17.48
2024-05-09T08:03:29.385Z,17.67
2024-05-09T08:05:56.169Z,17.65
2024-05-09T08:08:22.893Z,17.71
2024-05-09T08:10:50.447Z,17.89
2024-05-09T08:13:17.100Z,18.03
2024-05-09T08:15:43.827Z,18.14
2024-05-09T08:18:10.750Z,18.21
2024-05-09T08:20:41.315Z,18.41
2024-05-09T08:23:07.932Z,18.88
2024-05-09T08:25:34.466Z,18.78
2024-05-09T08:28:01.102Z,18.87
2024-05-09T08:30:33.714Z,19.00
2024-05-09T08:33:04.264Z,19.42
2024-05-09T08:35:31.036Z,19.45
2024-05-09T08:37:57.735Z,19.60
2024-05-09T08:40:31.078Z,19.24
2024-05-09T08:43:02.816Z,19.86
2024-05-09T08:45:29.627Z,19.88
2024-05-09T08:47:56.755Z,19.24
2024-05-09T08:50:32.237Z,19.75
2024-05-09T08:53:05.124Z,19.74
2024-05-09T08:55:31.759Z,19.85
2024-05-09T08:57:59.205Z,19.54
2024-05-09T09:00:35.627Z,19.14
2024-05-09T09:03:05.749Z,20.03
2024-05-09T09:05:33.701Z,19.81
2024-05-09T09:08:00.614Z,19.81
2024-05-09T09:10:32.179Z,20.20
2024-05-09T09:13:04.752Z,20.78
2024-05-09T09:15:31.933Z,21.26
2024-05-09T09:18:00.209Z,21.09
2024-05-09T09:20:34.163Z,20.53
2024-05-09T09:23:03.785Z,20.84
2024-05-09T09:25:30.617Z,21.30
2024-05-09T09:27:58.315Z,21.19
2024-05-09T09:30:34.957Z,21.25
2024-05-09T09:33:04.888Z,20.57
2024-05-09T09:35:31.756Z,21.02
2024-05-09T09:38:01.924Z,20.60
2024-05-09T09:40:34.940Z,21.07
2024-05-09T09:43:07.312Z,21.20
2024-05-09T09:45:35.976Z,21.05
2024-05-09T09:48:02.826Z,20.66
2024-05-09T09:50:34.347Z,21.51
2024-05-09T09:53:03.082Z,21.58
2024-05-09T09:55:29.952Z,21.45
2024-05-09T09:57:56.646Z,22.03
2024-05-09T10:00:30.464Z,22.31
2024-05-09T10:03:00.039Z,21.74
2024-05-09T10:05:27.159Z,22.08
2024-05-09T10:07:54.866Z,21.66
2024-05-09T10:10:27.425Z,21.29
2024-05-09T10:13:05.883Z,21.83
2024-05-09T10:15:52.411Z,22.91
2024-05-09T10:18:28.056Z,22.81
2024-05-09T10:20:56.858Z,22.78
2024-05-09T10:23:30.699Z,23.27
2024-05-09T10:26:03.775Z,22.97
2024-05-09T10:28:31.725Z,22.55
2024-05-09T10:31:11.518Z,22.25
2024-05-09T10:33:49.688Z,22.86
2024-05-09T10:36:20.651Z,23.06
2024-05-09T10:38:48.737Z,23.32
2024-05-09T10:41:16.866Z,22.04
2024-05-09T10:43:43.590Z,22.93
2024-05-09T10:46:11.756Z,23.75
2024-05-09T10:48:39.419Z,22.80
2024-05-09T10:51:06.131Z,22.18
2024-05-09T10:53:40.368Z,23.66
2024-05-09T10:56:07.100Z,24.16
2024-05-09T10:58:33.661Z,24.44
2024-05-09T11:01:02.340Z,24.91
2024-05-09T11:03:31.060Z,25.04
2024-05-09T11:05:57.933Z,24.96
2024-05-09T11:08:24.922Z,25.18
2024-05-09T11:10:52.758Z,24.20
2024-05-09T11:13:29.674Z,23.88
2024-05-09T11:15:56.336Z,24.14
2024-05-09T11:18:25.384Z,24.53
2024-05-09T11:20:54.018Z,24.20
2024-05-09T11:23:21.933Z,23.62
2024-05-09T11:25:55.828Z,22.52
2024-05-09T11:28:22.951Z,22.20
2024-05-09T11:30:50.365Z,21.85
2024-05-09T11:33:19.143Z,21.90
2024-05-09T11:35:46.931Z,22.02
2024-05-09T11:38:13.999Z,22.03
2024-05-09T11:40:41.813Z,22.07
2024-05-09T11:43:08.449Z,22.13
2024-05-09T11:45:35.133Z,22.70
2024-05-09T11:48:01.950Z,22.64
2024-05-09T11:50:33.135Z,23.78
2024-05-09T11:53:02.409Z,24.87
2024-05-09T11:55:29.182Z,25.04
2024-05-09T11:57:56.109Z,25.50
2024-05-09T12:00:32.993Z,25.60
2024-05-09T12:03:04.975Z,24.67
2024-05-09T12:05:32.286Z,25.42
2024-05-09T12:07:59.075Z,26.12
2024-05-09T12:10:32.735Z,27.14
2024-05-09T12:13:01.901Z,26.06
2024-05-09T12:15:28.873Z,26.26
2024-05-09T12:17:58.201Z,26.28
2024-05-09T12:20:34.778Z,26.15
2024-05-09T12:23:04.458Z,27.34
2024-05-09T12:25:31.061Z,27.59
2024-05-09T12:27:57.734Z,27.41
2024-05-09T12:30:33.293Z,27.62
2024-05-09T12:33:04.898Z,28.28
2024-05-09T12:35:31.716Z,28.58
2024-05-09T12:37:58.335Z,29.23
2024-05-09T12:40:34.218Z,28.83
2024-05-09T12:43:04.235Z,29.15
2024-05-09T12:45:31.112Z,29.06
2024-05-09T12:47:57.973Z,29.57
2024-05-09T12:50:31.111Z,29.40
2024-05-09T12:52:59.673Z,29.04
2024-05-09T12:55:26.983Z,29.01
2024-05-09T12:57:54.689Z,28.30
2024-05-09T13:00:28.122Z,27.76
2024-05-09T13:03:00.290Z,26.33
2024-05-09T13:05:27.336Z,24.99
2024-05-09T13:07:54.074Z,25.06
2024-05-09T13:10:29.001Z,24.64
2024-05-09T13:12:59.324Z,25.14
2024-05-09T13:15:26.077Z,26.28
2024-05-09T13:17:52.834Z,27.97
2024-05-09T13:20:28.875Z,29.18
2024-05-09T13:23:01.527Z,29.60
2024-05-09T13:25:28.096Z,29.63
2024-05-09T13:27:54.926Z,30.44
2024-05-09T13:30:29.305Z,30.09
2024-05-09T13:33:04.788Z,28.52
2024-05-09T13:35:32.124Z,27.17
2024-05-09T13:37:58.818Z,25.07
2024-05-09T13:40:32.332Z,26.70
2024-05-09T13:43:01.982Z,27.64
2024-05-09T13:45:28.812Z,29.05
2024-05-09T13:47:55.659Z,30.16
2024-05-09T13:50:31.020Z,30.19
2024-05-09T13:53:01.819Z,30.80
2024-05-09T13:55:28.435Z,29.33
2024-05-09T13:57:55.491Z,27.19
2024-05-09T14:00:37.626Z,26.61
2024-05-09T14:03:08.913Z,27.58
2024-05-09T14:05:35.773Z,27.81
2024-05-09T14:08:02.436Z,27.35
2024-05-09T14:10:31.451Z,28.02
2024-05-09T14:12:58.970Z,27.95
2024-05-09T14:15:25.618Z,28.15
2024-05-09T14:17:52.358Z,27.68
2024-05-09T14:20:28.507Z,27.49
2024-05-09T14:22:58.223Z,28.47
2024-05-09T14:25:26.457Z,27.36
2024-05-09T14:27:53.376Z,28.44
2024-05-09T14:30:29.617Z,28.49
2024-05-09T14:33:01.424Z,29.09
2024-05-09T14:35:28.219Z,28.66
2024-05-09T14:37:54.746Z,27.13
2024-05-09T14:40:35.537Z,26.72
2024-05-09T14:43:07.415Z,26.73
2024-05-09T14:45:34.511Z,25.33
2024-05-09T14:48:01.421Z,25.65
2024-05-09T14:50:35.035Z,26.39
2024-05-09T14:53:05.958Z,26.44
2024-05-09T14:55:35.285Z,25.88
2024-05-09T14:58:02.747Z,25.38
2024-05-09T15:00:35.140Z,24.97
2024-05-09T15:03:03.182Z,24.92
2024-05-09T15:05:30.082Z,25.27
2024-05-09T15:07:57.647Z,24.93
2024-05-09T15:10:33.176Z,24.60
2024-05-09T15:13:02.213Z,24.67
2024-05-09T15:15:28.879Z,24.24
2024-05-09T15:17:55.837Z,23.74
2024-05-09T15:20:31.010Z,23.81
2024-05-09T15:23:02.257Z,23.46
2024-05-09T15:25:29.042Z,23.87
2024-05-09T15:27:55.782Z,23.77
2024-05-09T15:32:52.160Z,24.02
2024-05-09T15:35:18.821Z,23.82
2024-05-09T15:37:48.071Z,23.54
2024-05-09T15:40:18.898Z,23.51
2024-05-09T15:42:53.276Z,23.31
2024-05-09T15:45:19.890Z,23.19
2024-05-09T15:47:46.647Z,23.46
2024-05-09T15:50:20.422Z,23.90
2024-05-09T15:52:55.303Z,23.63
2024-05-09T15:55:21.869Z,23.17
2024-05-09T15:57:48.474Z,23.01
2024-05-09T16:00:21.915Z,23.59
2024-05-09T16:02:55.571Z,23.72
2024-05-09T16:05:22.587Z,23.53
2024-05-09T16:07:49.388Z,23.17
2024-05-09T16:10:22.723Z,23.38
2024-05-09T16:12:52.354Z,23.47
2024-05-09T16:15:18.942Z,23.36
2024-05-09T16:17:45.589Z,23.20
2024-05-09T16:20:15.351Z,23.12
2024-05-09T16:22:48.382Z,23.08
2024-05-09T16:25:14.996Z,22.89
2024-05-09T16:27:41.581Z,22.79
2024-05-09T16:30:11.992Z,22.77
2024-05-09T16:32:46.465Z,22.50
2024-05-09T16:35:13.752Z,22.47
2024-05-09T16:37:40.300Z,22.32
2024-05-09T16:40:15.237Z,22.41
2024-05-09T16:42:46.006Z,22.57
2024-05-09T16:45:13.118Z,22.58
2024-05-09T16:47:40.013Z,22.53
2024-05-09T16:50:08.623Z,22.48
2024-05-09T16:52:35.388Z,22.34
2024-05-09T16:55:02.032Z,22.29
2024-05-09T16:57:28.808Z,22.28
2024-05-09T16:59:55.346Z,22.35
2024-05-09T17:02:22.085Z,21.76
2024-05-09T17:04:48.815Z,21.88
2024-05-09T17:07:15.673Z,22.12
2024-05-09T17:09:42.336Z,22.09
2024-05-09T17:12:08.897Z,21.77
2024-05-09T17:14:35.517Z,21.68
2024-05-09T17:17:02.258Z,21.53
2024-05-09T17:19:29.359Z,21.70
2024-05-09T17:21:55.995Z,21.58
2024-05-09T17:24:22.582Z,21.68
2024-05-09T17:26:49.605Z,21.66
2024-05-09T17:29:16.221Z,21.74
2024-05-09T17:31:42.878Z,21.58
2024-05-09T17:34:09.616Z,21.63
2024-05-09T17:36:36.319Z,21.64
2024-05-09T17:39:02.999Z,21.32
2024-05-09T17:41:29.562Z,21.12
2024-05-09T17:43:56.198Z,21.07
2024-05-09T17:46:22.892Z,21.12
2024-05-09T17:48:49.702Z,21.25
2024-05-09T17:51:16.335Z,21.47
2024-05-09T17:53:43.053Z,21.36
2024-05-09T17:56:09.648Z,21.52
2024-05-09T17:58:36.269Z,21.41
2024-05-09T18:01:02.952Z,21.20
2024-05-09T18:03:29.798Z,20.88
2024-05-09T18:05:56.726Z,21.04
2024-05-09T18:08:23.335Z,21.07
2024-05-09T18:10:51.449Z,20.96
2024-05-09T18:13:18.744Z,20.77
2024-05-09T18:15:45.487Z,21.03
2024-05-09T18:18:12.774Z,20.99
2024-05-09T18:20:44.154Z,20.78
2024-05-09T18:23:14.408Z,20.94
2024-05-09T18:25:42.180Z,20.61
2024-05-09T18:28:08.950Z,20.55
2024-05-09T18:30:37.033Z,20.44
2024-05-09T18:33:06.424Z,20.46
2024-05-09T18:35:34.482Z,20.48
2024-05-09T18:38:01.040Z,20.36
2024-05-09T18:40:33.243Z,20.46
2024-05-09T18:43:03.396Z,20.53
2024-05-09T18:45:30.220Z,20.29
2024-05-09T18:47:57.043Z,20.24
2024-05-09T18:50:32.232Z,20.04
2024-05-09T18:53:04.918Z,20.14
2024-05-09T18:55:31.502Z,20.10
2024-05-09T18:57:58.146Z,20.14
2024-05-09T19:00:33.458Z,19.87
2024-05-09T19:03:05.484Z,19.84
2024-05-09T19:05:34.579Z,19.77
2024-05-09T19:08:02.706Z,19.74
2024-05-09T19:10:34.251Z,19.84
2024-05-09T19:13:05.435Z,19.73
2024-05-09T19:15:35.644Z,19.50
2024-05-09T19:18:02.521Z,19.61
2024-05-09T19:20:34.162Z,19.56
2024-05-09T19:23:02.414Z,19.53
2024-05-09T19:25:29.027Z,19.48
2024-05-09T19:27:55.723Z,19.28
2024-05-09T19:30:30.183Z,19.17
2024-05-09T19:33:04.658Z,19.12
2024-05-09T19:35:31.436Z,19.01
2024-05-09T19:37:58.381Z,18.94
2024-05-09T19:40:30.812Z,18.94
2024-05-09T19:42:59.730Z,18.85
2024-05-09T19:45:26.370Z,18.63
2024-05-09T19:47:53.109Z,18.59
2024-05-09T19:50:26.884Z,18.34
2024-05-09T19:53:02.317Z,18.48
2024-05-09T19:55:28.908Z,18.18
2024-05-09T19:57:55.561Z,18.02
2024-05-09T20:00:29.158Z,18.09
2024-05-09T20:03:01.925Z,18.01
2024-05-09T20:05:30.732Z,18.05
2024-05-09T20:07:57.707Z,17.91
2024-05-09T20:10:29.806Z,17.78
2024-05-09T20:12:59.340Z,17.57
2024-05-09T20:15:25.961Z,17.52
2024-05-09T20:17:52.668Z,17.38
2024-05-09T20:20:28.369Z,17.57
2024-05-09T20:23:02.876Z,17.53
2024-05-09T20:25:29.506Z,17.47
2024-05-09T20:27:56.134Z,17.48
2024-05-09T20:30:30.444Z,17.20
2024-05-09T20:32:59.285Z,17.15
2024-05-09T20:35:26.670Z,16.96
2024-05-09T20:37:53.603Z,17.13
2024-05-09T20:40:28.355Z,16.91
2024-05-09T20:42:58.920Z,16.79
2024-05-09T20:45:25.657Z,16.89
2024-05-09T20:47:52.372Z,16.85
2024-05-09T20:50:28.103Z,16.98
2024-05-09T20:53:02.655Z,17.07
2024-05-09T20:55:29.842Z,17.12
2024-05-09T20:57:56.802Z,17.19
2024-05-09T21:00:30.108Z,17.04
2024-05-09T21:03:05.118Z,17.03
2024-05-09T21:05:31.968Z,17.08
2024-05-09T21:07:58.749Z,17.03
2024-05-09T21:10:27.138Z,17.08
2024-05-09T21:12:56.368Z,16.88
2024-05-09T21:15:23.045Z,16.83
2024-05-09T21:17:49.698Z,16.80
2024-05-09T21:20:20.602Z,16.79
2024-05-09T21:22:50.869Z,16.70
2024-05-09T21:25:17.440Z,16.63
2024-05-09T21:27:44.192Z,16.68
2024-05-09T21:30:18.414Z,16.60
2024-05-09T21:32:49.844Z,16.56
2024-05-09T21:35:17.690Z,16.38
2024-05-09T21:37:44.407Z,16.53
2024-05-09T21:40:14.038Z,16.54
2024-05-09T21:42:48.526Z,16.44
2024-05-09T21:45:15.164Z,16.50
2024-05-09T21:47:42.221Z,16.45
2024-05-09T21:50:12.521Z,16.12
2024-05-09T21:52:41.902Z,16.23
2024-05-09T21:55:08.666Z,16.05
2024-05-09T21:57:35.294Z,16.29
2024-05-09T22:00:01.915Z,16.29
2024-05-09T22:02:28.624Z,15.98
2024-05-09T22:04:55.686Z,15.93
2024-05-09T22:07:23.567Z,16.07
2024-05-09T22:09:50.250Z,16.13
2024-05-09T22:12:16.833Z,15.95
2024-05-09T22:14:43.380Z,15.86
2024-05-09T22:17:09.959Z,15.92
2024-05-09T22:19:36.659Z,15.76
2024-05-09T22:22:03.484Z,15.77
2024-05-09T22:24:30.201Z,15.60
2024-05-09T22:26:56.737Z,15.61
2024-05-09T22:29:23.293Z,15.50
2024-05-09T22:31:49.871Z,15.46
2024-05-09T22:34:16.592Z,15.36
2024-05-09T22:36:43.218Z,15.31
2024-05-09T22:39:09.785Z,15.26
2024-05-09T22:41:36.337Z,15.27
2024-05-09T22:44:02.869Z,15.22
2024-05-09T22:46:29.724Z,15.16
2024-05-09T22:48:56.531Z,15.10
2024-05-09T22:51:23.146Z,15.16
2024-05-09T22:53:49.700Z,15.07
2024-05-09T22:56:26.599Z,15.04
2024-05-09T22:58:53.136Z,15.11
2024-05-09T23:01:19.773Z,15.21
2024-05-09T23:03:47.159Z,14.97
2024-05-09T23:06:13.973Z,14.87
2024-05-09T23:08:40.670Z,14.75
2024-05-09T23:11:07.304Z,14.61
2024-05-09T23:13:34.876Z,14.62
2024-05-09T23:16:01.809Z,14.72
2024-05-09T23:18:28.422Z,14.61
2024-05-09T23:20:54.975Z,14.56
2024-05-09T23:23:21.703Z,14.63
2024-05-09T23:25:49.175Z,14.51
2024-05-09T23:28:15.744Z,14.43
2024-05-09T23:30:42.616Z,14.40
2024-05-09T23:33:11.794Z,14.43
2024-05-09T23:35:41.520Z,14.45
2024-05-09T23:38:08.072Z,14.36
2024-05-09T23:40:38.828Z,14.40
2024-05-09T23:43:11.380Z,14.32
2024-05-09T23:45:38.813Z,14.21
2024-05-09T23:48:06.059Z,14.25
2024-05-09T23:50:36.444Z,14.29
2024-05-09T23:53:06.105Z,14.16
2024-05-09T23:55:33.602Z,14.09
2024-05-09T23:58:00.558Z,13.95
